Time;durP1;ratioP1;P1;durP2;ratioP2;P2;SDS_P1;SDS_P2;PMS_P1;PMS_P2;Temp;Humidity;BMP_temperature;BMP_pressure;BME280_temperature;BME280_humidity;BME280_pressure;Samples;Min_cycle;Max_cycle;Signal;HPM_P1;HPM_P2
2022/11/19 00:00:49;;;;;;;23.25;17.98;;;;;;;6.28;100.00;100685.25;5048937;28;20064;-49
2022/11/19 00:03:16;;;;;;;23.90;17.70;;;;;;;6.24;100.00;100687.19;5053669;28;20486;-50
2022/11/19 00:05:44;;;;;;;27.85;19.20;;;;;;;6.23;100.00;100692.59;5051073;28;20108;-48
2022/11/19 00:08:11;;;;;;;24.80;18.27;;;;;;;6.20;100.00;100692.78;5051432;28;20021;-48
2022/11/19 00:10:37;;;;;;;26.05;19.35;;;;;;;6.17;100.00;100698.25;5052233;28;20450;-50
2022/11/19 00:13:04;;;;;;;26.40;19.55;;;;;;;6.08;100.00;100695.22;5050936;28;20359;-52
2022/11/19 00:15:30;;;;;;;26.13;19.40;;;;;;;6.00;100.00;100700.09;5053448;28;20041;-49
2022/11/19 00:17:57;;;;;;;29.15;20.23;;;;;;;5.97;100.00;100699.44;5049932;28;20029;-50
2022/11/19 00:20:22;;;;;;;27.60;18.63;;;;;;;5.92;100.00;100708.41;5053120;28;20096;-49
2022/11/19 00:22:55;;;;;;;26.92;18.95;;;;;;;5.85;100.00;100711.53;5053175;28;20120;-50
2022/11/19 00:25:22;;;;;;;29.08;20.48;;;;;;;5.73;100.00;100703.41;5048586;28;20095;-49
2022/11/19 00:27:48;;;;;;;27.80;20.00;;;;;;;5.71;100.00;100713.19;5053048;28;20071;-49
2022/11/19 00:30:14;;;;;;;28.10;19.77;;;;;;;5.69;100.00;100709.78;5050632;28;20483;-49
2022/11/19 00:32:40;;;;;;;25.90;18.83;;;;;;;5.65;100.00;100720.59;5052072;28;20040;-51
2022/11/19 00:35:05;;;;;;;29.80;20.90;;;;;;;5.60;100.00;100709.47;5052965;28;20021;-51
2022/11/19 00:37:31;;;;;;;26.05;19.98;;;;;;;5.65;100.00;100712.69;5052075;28;20017;-51
2022/11/19 00:39:56;;;;;;;30.08;20.02;;;;;;;5.64;100.00;100721.53;5048810;28;20045;-50
2022/11/19 00:42:22;;;;;;;26.40;20.30;;;;;;;5.60;100.00;100725.28;5053005;28;20025;-49
2022/11/19 00:44:47;;;;;;;27.38;20.80;;;;;;;5.56;100.00;100721.97;5052966;28;20040;-50
2022/11/19 00:47:13;;;;;;;25.10;19.33;;;;;;;5.51;100.00;100727.50;5047604;28;20022;-52
2022/11/19 00:49:38;;;;;;;28.83;19.48;;;;;;;5.47;100.00;100720.72;5036264;28;20037;-49
2022/11/19 00:52:04;;;;;;;29.23;19.58;;;;;;;5.42;100.00;100714.84;5060202;28;20013;-50
2022/11/19 00:54:29;;;;;;;28.17;19.73;;;;;;;5.36;100.00;100721.34;5052709;28;20025;-49
2022/11/19 00:56:54;;;;;;;26.25;18.58;;;;;;;5.33;100.00;100726.78;5049604;28;20033;-52
2022/11/19 00:59:19;;;;;;;27.63;19.92;;;;;;;5.31;100.00;100730.41;5044607;28;20050;-49
2022/11/19 01:01:45;;;;;;;26.70;19.02;;;;;;;5.26;100.00;100730.69;5042891;28;20028;-50
2022/11/19 01:04:10;;;;;;;26.08;18.92;;;;;;;5.18;100.00;100728.47;5049399;28;20522;-53
2022/11/19 01:06:35;;;;;;;28.25;20.65;;;;;;;5.11;100.00;100736.78;5050782;28;20025;-49
2022/11/19 01:09:01;;;;;;;26.25;18.73;;;;;;;5.05;100.00;100735.38;5042843;28;20065;-49
2022/11/19 01:11:29;;;;;;;27.10;19.85;;;;;;;5.00;100.00;100742.66;5049940;28;20112;-49
2022/11/19 01:13:56;;;;;;;27.38;19.45;;;;;;;4.98;100.00;100744.53;5044483;28;20106;-50
2022/11/19 01:16:30;;;;;;;28.02;19.85;;;;;;;4.97;100.00;100740.19;5047505;28;20021;-51
2022/11/19 01:18:56;;;;;;;29.55;19.73;;;;;;;4.97;100.00;100745.47;5052798;28;20064;-49
2022/11/19 01:21:24;;;;;;;27.55;20.70;;;;;;;4.96;100.00;100746.38;5050074;28;20044;-51
2022/11/19 01:23:49;;;;;;;27.00;19.55;;;;;;;4.96;100.00;100757.78;5052215;28;20017;-48
2022/11/19 01:26:15;;;;;;;28.02;19.95;;;;;;;4.97;100.00;100759.47;5052110;28;20444;-48
2022/11/19 01:28:41;;;;;;;28.10;20.15;;;;;;;4.94;100.00;100764.06;5049861;28;20033;-49
2022/11/19 01:31:09;;;;;;;27.00;20.15;;;;;;;4.92;100.00;100764.13;5051921;28;20024;-49
2022/11/19 01:33:35;;;;;;;28.08;20.90;;;;;;;4.92;100.00;100769.41;5043776;28;20037;-50
2022/11/19 01:36:04;;;;;;;28.13;21.15;;;;;;;4.91;100.00;100772.97;5033757;28;20036;-52
2022/11/19 01:38:30;;;;;;;;;;;;;;;4.97;100.00;100767.34;5038244;28;20037;-51
2022/11/19 01:40:56;;;;;;;29.85;21.67;;;;;;;4.89;100.00;100766.09;5033726;28;19916;-47
2022/11/19 01:43:40;;;;;;;30.90;20.83;;;;;;;4.91;100.00;100783.50;5040700;28;20072;-50
2022/11/19 01:46:05;;;;;;;29.02;19.90;;;;;;;4.88;100.00;100781.03;5048437;28;20020;-49
2022/11/19 01:48:33;;;;;;;26.00;20.15;;;;;;;4.90;100.00;100783.59;5043208;28;20021;-48
2022/11/19 01:51:04;;;;;;;26.17;19.63;;;;;;;4.89;100.00;100790.59;5051536;28;20025;-48
2022/11/19 01:53:35;;;;;;;26.30;20.23;;;;;;;4.87;100.00;100792.47;5032174;28;20033;-48
2022/11/19 01:56:03;;;;;;;26.48;20.10;;;;;;;4.81;100.00;100790.16;5046420;28;20055;-49
2022/11/19 01:58:36;;;;;;;27.23;20.77;;;;;;;4.77;100.00;100791.28;5041198;28;20158;-48
2022/11/19 02:01:02;;;;;;;26.65;20.52;;;;;;;4.72;100.00;100788.88;5052799;28;20032;-48
2022/11/19 02:03:29;;;;;;;27.48;21.58;;;;;;;4.71;100.00;100791.59;5056261;28;20021;-49
2022/11/19 02:05:55;;;;;;;26.02;21.60;;;;;;;4.70;100.00;100789.91;5055726;28;20017;-50
2022/11/19 02:08:39;;;;;;;27.05;20.92;;;;;;;4.68;100.00;100791.75;5049494;28;20029;-49
2022/11/19 02:11:32;;;;;;;24.60;20.38;;;;;;;4.62;100.00;100790.31;5056207;28;20486;-50
2022/11/19 02:14:28;;;;;;;24.70;20.05;;;;;;;4.64;100.00;100794.53;5050964;28;20052;-48
2022/11/19 02:17:16;;;;;;;25.90;19.40;;;;;;;4.61;100.00;100792.09;5055879;28;20588;-50
2022/11/19 02:19:47;;;;;;;26.40;20.33;;;;;;;4.59;100.00;100793.94;5051309;28;20033;-49
2022/11/19 02:22:47;;;;;;;26.90;20.35;;;;;;;4.58;100.00;100787.00;5055932;28;20063;-51
2022/11/19 02:25:21;;;;;;;25.55;20.15;;;;;;;4.53;100.00;100789.00;5050104;28;20025;-49
2022/11/19 02:28:00;;;;;;;27.13;19.73;;;;;;;4.49;100.00;100795.34;5054529;28;20509;-53
2022/11/19 02:30:34;;;;;;;27.45;20.55;;;;;;;4.48;100.00;100790.16;5052875;28;20029;-50
2022/11/19 02:33:24;;;;;;;25.83;18.05;;;;;;;4.49;100.00;100795.34;5055714;28;20436;-49
2022/11/19 02:35:59;;;;;;;21.50;16.77;;;;;;;4.43;100.00;100793.91;5050366;28;20025;-50
2022/11/19 02:38:40;;;;;;;22.65;16.92;;;;;;;4.41;100.00;100806.28;5048097;28;20040;-48
2022/11/19 02:41:32;;;;;;;23.17;15.82;;;;;;;4.35;100.00;100803.13;5055368;28;20021;-48
2022/11/19 02:46:52;;;;;;;18.83;15.00;;;;;;;4.24;100.00;100804.50;5051051;28;20124;-48
2022/11/19 02:49:20;;;;;;;18.10;14.65;;;;;;;4.17;100.00;100808.38;5053702;28;20037;-48
2022/11/19 02:51:47;;;;;;;19.00;14.02;;;;;;;4.10;100.00;100807.00;5055471;28;20500;-48
2022/11/19 02:54:15;;;;;;;16.42;13.40;;;;;;;4.05;100.00;100809.00;5054612;28;20485;-48
2022/11/19 02:56:50;;;;;;;19.48;14.88;;;;;;;4.03;100.00;100816.09;5049521;28;20029;-48
2022/11/19 03:04:52;;;;;;;18.17;14.00;;;;;;;3.99;100.00;100827.69;5055306;28;20040;-50
2022/11/19 03:07:18;;;;;;;16.90;13.38;;;;;;;3.97;100.00;100829.56;5054269;28;20017;-50
2022/11/19 03:09:51;;;;;;;17.38;14.05;;;;;;;3.91;100.00;100822.81;5043251;28;20044;-50
2022/11/19 03:12:47;;;;;;;17.20;13.98;;;;;;;3.94;100.00;100825.28;5054198;28;20036;-49
2022/11/19 03:18:32;;;;;;;16.13;12.32;;;;;;;3.89;100.00;100829.91;5052805;28;20109;-50
2022/11/19 03:21:35;;;;;;;15.20;12.23;;;;;;;3.87;100.00;100822.09;5054668;28;20097;-49
2022/11/19 03:24:06;;;;;;;14.00;12.50;;;;;;;3.78;100.00;100833.09;5023573;28;20501;-51
2022/11/19 03:26:38;;;;;;;15.93;12.38;;;;;;;3.71;99.78;100834.28;5053947;28;20048;-46
2022/11/19 03:29:07;;;;;;;19.42;13.50;;;;;;;3.66;99.62;100847.66;5053355;28;20041;-46
2022/11/19 03:31:33;;;;;;;14.55;12.90;;;;;;;3.65;99.86;100845.09;5052280;28;20402;-50
2022/11/19 03:34:04;;;;;;;16.05;13.38;;;;;;;3.60;99.47;100850.56;5047456;28;20040;-52
2022/11/19 03:36:35;;;;;;;17.60;14.05;;;;;;;3.60;99.56;100845.31;5053006;28;20039;-49
2022/11/19 03:39:04;;;;;;;18.75;13.45;;;;;;;3.58;99.54;100838.41;5053940;28;20037;-49
2022/11/19 03:41:34;;;;;;;18.73;14.77;;;;;;;3.55;99.43;100841.19;5049923;28;20030;-49
2022/11/19 03:44:02;;;;;;;;;;;;;;;3.63;99.82;100845.16;5036332;28;20025;-50
2022/11/19 03:46:32;;;;;;;18.83;14.57;;;;;;;3.51;99.65;100843.97;5047117;28;20025;-49
2022/11/19 03:48:59;;;;;;;18.77;14.55;;;;;;;3.49;99.32;100845.81;5049407;28;20028;-49
2022/11/19 03:51:42;;;;;;;16.30;14.13;;;;;;;3.46;99.52;100848.56;5052229;28;20060;-49
2022/11/19 03:54:08;;;;;;;17.45;14.20;;;;;;;3.43;99.56;100851.38;5053661;28;20028;-50
2022/11/19 03:56:37;;;;;;;20.05;14.23;;;;;;;3.39;99.57;100856.81;5051054;28;20029;-49
2022/11/19 03:59:04;;;;;;;19.65;15.95;;;;;;;3.36;100.00;100855.19;5052465;28;20483;-49
2022/11/19 04:01:30;;;;;;;20.90;15.80;;;;;;;3.37;100.00;100856.06;5053707;28;20491;-49
2022/11/19 04:04:40;;;;;;;19.65;16.30;;;;;;;3.35;100.00;100850.88;5042331;28;20036;-52
2022/11/19 04:06:40;;;;;;;20.02;15.30;;;;;;;3.37;100.00;100863.94;5052900;28;20091;-51
2022/11/19 04:09:06;;;;;;;24.55;16.83;;;;;;;3.36;100.00;100859.59;5053574;28;20028;-49
2022/11/19 04:11:31;;;;;;;21.60;17.33;;;;;;;3.38;100.00;100860.34;5049081;28;20029;-48
2022/11/19 04:13:56;;;;;;;20.80;15.80;;;;;;;3.37;100.00;100866.56;5053737;28;20475;-50
2022/11/19 04:16:22;;;;;;;25.50;17.60;;;;;;;3.37;100.00;100864.78;5050102;28;20030;-49
2022/11/19 04:18:47;;;;;;;22.45;16.40;;;;;;;3.38;100.00;100873.47;5053562;28;20028;-49
2022/11/19 04:21:12;;;;;;;23.73;17.98;;;;;;;3.37;100.00;100867.41;5053126;28;20432;-49
2022/11/19 04:23:38;;;;;;;22.00;17.48;;;;;;;3.36;99.56;100878.81;5045445;28;20025;-53
2022/11/19 04:26:03;;;;;;;23.27;17.70;;;;;;;3.31;99.19;100881.66;5047264;28;20075;-53
2022/11/19 04:28:28;;;;;;;25.17;19.35;;;;;;;3.27;98.92;100892.38;5051528;28;20025;-50
2022/11/19 04:30:53;;;;;;;23.65;18.42;;;;;;;3.23;98.51;100882.91;5052061;28;20119;-51
2022/11/19 04:33:19;;;;;;;27.58;19.67;;;;;;;3.19;98.26;100890.06;5053088;28;20029;-50
2022/11/19 04:35:44;;;;;;;26.20;20.35;;;;;;;3.17;98.14;100897.19;5042372;28;20051;-53
2022/11/19 04:38:10;;;;;;;25.42;19.45;;;;;;;3.07;97.31;100899.34;5053134;28;20361;-52
2022/11/19 04:40:35;;;;;;;24.23;19.92;;;;;;;3.06;98.02;100897.63;5053128;28;20368;-50
2022/11/19 04:43:00;;;;;;;24.83;18.92;;;;;;;3.02;97.30;100893.47;5046398;28;20036;-49
2022/11/19 04:45:26;;;;;;;26.02;19.50;;;;;;;3.01;97.64;100896.16;5046422;28;20100;-50
2022/11/19 04:47:51;;;;;;;27.27;19.98;;;;;;;2.99;97.96;100893.59;5048449;28;20052;-50
2022/11/19 04:50:16;;;;;;;26.52;20.83;;;;;;;2.97;96.79;100896.28;5046074;28;20039;-49
2022/11/19 04:52:41;;;;;;;26.27;20.42;;;;;;;2.96;96.90;100904.22;5047432;28;20057;-50
2022/11/19 04:55:08;;;;;;;26.83;21.20;;;;;;;2.93;97.04;100906.97;5045939;28;20047;-51
2022/11/19 04:57:33;;;;;;;27.63;20.75;;;;;;;2.92;97.17;100903.50;5052596;28;20044;-49
2022/11/19 04:59:59;;;;;;;30.42;21.98;;;;;;;2.93;97.60;100906.97;5051151;28;20060;-50
2022/11/19 05:02:24;;;;;;;25.38;19.60;;;;;;;2.94;97.41;100908.69;5052184;28;20025;-50
2022/11/19 05:04:49;;;;;;;26.40;20.00;;;;;;;2.90;96.91;100902.72;5050598;28;20479;-49
2022/11/19 05:07:14;;;;;;;26.67;21.10;;;;;;;2.90;97.49;100915.84;5052061;28;20035;-49
2022/11/19 05:09:40;;;;;;;29.98;21.40;;;;;;;2.87;96.94;100910.72;5043258;28;20021;-49
2022/11/19 05:12:05;;;;;;;28.77;20.60;;;;;;;2.87;96.99;100920.38;5051501;28;20032;-49
2022/11/19 05:14:31;;;;;;;24.98;20.10;;;;;;;2.87;96.98;100925.63;5052701;28;20045;-49
2022/11/19 05:16:56;;;;;;;29.00;22.65;;;;;;;2.84;96.30;100934.47;5042092;28;20116;-52
2022/11/19 05:19:21;;;;;;;28.25;21.50;;;;;;;2.83;96.08;100934.53;5052277;28;20025;-52
2022/11/19 05:21:46;;;;;;;26.83;19.95;;;;;;;2.82;96.40;100928.44;5052267;28;20047;-51
2022/11/19 05:24:12;;;;;;;28.33;22.25;;;;;;;2.80;96.70;100927.66;5052328;28;20079;-51
2022/11/19 05:26:37;;;;;;;28.70;21.85;;;;;;;2.80;96.58;100935.53;5039912;28;20032;-49
2022/11/19 05:29:02;;;;;;;26.92;20.90;;;;;;;2.79;96.92;100939.06;5051991;28;20048;-49
2022/11/19 05:31:28;;;;;;;28.50;22.50;;;;;;;2.80;97.96;100935.53;5052072;28;20088;-50
2022/11/19 05:33:53;;;;;;;31.05;22.98;;;;;;;2.78;96.97;100938.22;5052285;28;20024;-49
2022/11/19 05:36:18;;;;;;;26.58;21.50;;;;;;;2.78;97.44;100940.84;5042201;28;20032;-52
2022/11/19 05:38:43;;;;;;;29.30;21.95;;;;;;;2.81;97.55;100941.63;5052082;28;20087;-49
2022/11/19 05:41:09;;;;;;;28.05;21.95;;;;;;;2.81;97.82;100944.25;5051784;28;20025;-49
2022/11/19 05:43:34;;;;;;;28.73;22.50;;;;;;;2.83;97.96;100950.25;5041205;28;20029;-49
2022/11/19 05:46:00;;;;;;;29.50;22.88;;;;;;;2.84;97.87;100951.97;5049656;28;20047;-52
2022/11/19 05:48:25;;;;;;;27.98;22.33;;;;;;;2.81;96.95;100947.72;5048103;28;20071;-50
2022/11/19 05:50:51;;;;;;;28.33;22.23;;;;;;;2.81;96.67;100957.34;5049830;28;20029;-50
2022/11/19 05:53:16;;;;;;;29.30;23.77;;;;;;;2.82;96.47;100959.06;5051523;28;20025;-51
2022/11/19 05:55:41;;;;;;;28.67;22.33;;;;;;;2.83;97.16;100958.13;5051816;28;20048;-51
2022/11/19 05:58:06;;;;;;;27.33;22.48;;;;;;;2.84;96.80;100959.84;5044637;28;20519;-51
2022/11/19 06:00:32;;;;;;;29.20;22.67;;;;;;;2.83;96.17;100964.25;5051490;28;20074;-50
2022/11/19 06:02:57;;;;;;;29.67;24.15;;;;;;;2.83;96.56;100974.75;5051778;28;20025;-50
2022/11/19 06:05:22;;;;;;;29.20;23.85;;;;;;;2.82;96.31;100964.31;5048832;28;20111;-50
2022/11/19 06:07:47;;;;;;;30.13;23.52;;;;;;;2.81;96.12;100975.72;5042951;28;20025;-49
2022/11/19 06:10:13;;;;;;;30.75;23.10;;;;;;;2.75;95.77;100975.06;5051255;28;20056;-50
2022/11/19 06:12:38;;;;;;;28.85;23.63;;;;;;;2.74;95.95;100975.13;5052018;28;20028;-49
2022/11/19 06:15:05;;;;;;;31.10;23.73;;;;;;;2.74;96.51;100975.97;5049285;28;20091;-51
2022/11/19 06:17:30;;;;;;;29.92;23.88;;;;;;;2.74;96.33;100975.13;5052045;28;20111;-51
2022/11/19 06:19:56;;;;;;;31.25;25.38;;;;;;;2.70;95.38;100989.28;5051377;28;20049;-50
2022/11/19 06:22:21;;;;;;;30.58;24.83;;;;;;;2.66;95.64;100991.16;5051644;28;20025;-50
2022/11/19 06:24:46;;;;;;;32.78;25.88;;;;;;;2.64;95.42;100998.25;5040335;28;20029;-53
2022/11/19 06:27:11;;;;;;;31.40;24.48;;;;;;;2.61;95.59;100995.75;5051883;28;20021;-51
2022/11/19 06:29:37;;;;;;;32.45;26.63;;;;;;;2.55;95.35;101002.09;5050018;28;20482;-51
2022/11/19 06:32:02;;;;;;;35.90;27.42;;;;;;;2.55;95.53;101011.75;5051775;28;20029;-49
2022/11/19 06:34:27;;;;;;;32.28;25.70;;;;;;;2.54;95.20;101020.53;5051788;28;20021;-49
2022/11/19 06:36:53;;;;;;;33.63;26.50;;;;;;;2.53;94.84;101024.03;5050399;28;20124;-50
2022/11/19 06:39:18;;;;;;;32.58;25.58;;;;;;;2.52;95.07;101022.34;5050845;28;20067;-50
2022/11/19 06:41:43;;;;;;;33.53;27.35;;;;;;;2.51;95.03;101018.03;5051721;28;20455;-49
2022/11/19 06:44:08;;;;;;;35.60;27.30;;;;;;;2.52;95.86;101024.97;5038173;28;20033;-50
2022/11/19 06:46:34;;;;;;;34.47;27.80;;;;;;;2.50;95.14;101022.41;5051767;28;20029;-48
2022/11/19 06:48:59;;;;;;;34.88;27.63;;;;;;;2.49;95.38;101014.63;5049734;28;20108;-50
2022/11/19 06:51:24;;;;;;;35.25;28.05;;;;;;;2.46;94.67;101018.19;5055405;28;20470;-49
2022/11/19 06:53:50;;;;;;;33.78;27.73;;;;;;;2.41;94.15;101025.41;5054785;28;20071;-49
2022/11/19 06:56:15;;;;;;;34.58;27.80;;;;;;;2.38;94.34;101022.88;5047722;28;20029;-49
2022/11/19 06:58:41;;;;;;;36.20;28.25;;;;;;;2.35;94.61;101030.91;5051792;28;20498;-49
2022/11/19 07:01:06;;;;;;;35.22;27.85;;;;;;;2.32;94.55;101031.84;5054966;28;20025;-49
2022/11/19 07:03:31;;;;;;;35.63;28.33;;;;;;;2.35;94.80;101034.38;5045460;28;20033;-49
2022/11/19 07:05:59;;;;;;;37.75;28.95;;;;;;;2.36;95.00;101038.66;5054380;28;20036;-49
2022/11/19 07:08:24;;;;;;;37.05;28.05;;;;;;;2.34;95.11;101045.75;5051303;28;20028;-50
2022/11/19 07:10:50;;;;;;;35.72;28.48;;;;;;;2.35;95.22;101038.75;5034129;28;20029;-49
2022/11/19 07:13:15;;;;;;;39.05;29.92;;;;;;;2.34;95.29;101039.66;5048451;28;20041;-51
2022/11/19 07:15:40;;;;;;;38.22;28.05;;;;;;;2.33;94.25;101051.06;5045199;28;20021;-49
2022/11/19 07:18:05;;;;;;;36.30;29.13;;;;;;;2.28;94.95;101051.25;5049806;28;20039;-50
2022/11/19 07:20:31;;;;;;;38.80;29.02;;;;;;;2.27;94.73;101048.69;5054253;28;20478;-50
2022/11/19 07:22:56;;;;;;;39.15;29.08;;;;;;;2.23;93.82;101058.41;5049161;28;20041;-49
2022/11/19 07:25:21;;;;;;;38.05;27.42;;;;;;;2.20;94.04;101063.78;5045589;28;20098;-49
2022/11/19 07:27:47;;;;;;;40.88;30.90;;;;;;;2.18;93.74;101060.34;5044497;28;20029;-50
2022/11/19 07:30:13;;;;;;;40.08;29.67;;;;;;;2.14;93.17;101064.03;5042422;28;20076;-49
2022/11/19 07:32:40;;;;;;;37.65;28.45;;;;;;;2.11;93.06;101067.59;5050094;28;20032;-49
2022/11/19 07:35:06;;;;;;;39.40;29.17;;;;;;;2.09;92.46;101073.81;5043197;28;20048;-49
2022/11/19 07:37:31;;;;;;;40.15;28.73;;;;;;;2.05;92.30;101075.72;5044273;28;20057;-50
2022/11/19 07:39:56;;;;;;;40.60;29.05;;;;;;;2.02;92.90;101084.53;5046185;28;20111;-49
2022/11/19 07:45:06;;;;;;;39.75;29.55;;;;;;;1.96;92.18;101089.97;5036388;28;20048;-49
2022/11/19 07:47:32;;;;;;;39.20;29.42;;;;;;;1.93;92.53;101086.63;5041797;28;20029;-50
2022/11/19 07:49:58;;;;;;;40.60;29.17;;;;;;;1.93;92.51;101091.84;5045918;28;20025;-50
2022/11/19 07:52:23;;;;;;;42.05;29.25;;;;;;;1.95;92.80;101095.28;5048469;28;20379;-50
2022/11/19 07:54:48;;;;;;;40.92;29.95;;;;;;;1.91;92.23;101091.91;5045588;28;20025;-49
2022/11/19 07:57:13;;;;;;;41.03;29.05;;;;;;;1.89;92.24;101096.38;5050463;28;20057;-49
2022/11/19 07:59:39;;;;;;;39.22;29.63;;;;;;;1.88;92.23;101093.78;5040817;28;20037;-50
2022/11/19 08:02:04;;;;;;;41.60;30.55;;;;;;;1.88;92.01;101097.25;5050736;28;20043;-49
2022/11/19 08:04:30;;;;;;;42.97;29.05;;;;;;;1.89;92.48;101101.59;5049646;28;20047;-49
2022/11/19 08:06:55;;;;;;;40.35;29.27;;;;;;;1.93;92.77;101097.09;5046063;28;20056;-50
2022/11/19 08:09:20;;;;;;;41.72;29.42;;;;;;;1.92;91.75;101098.03;5044591;28;20029;-51
2022/11/19 08:11:45;;;;;;;38.00;28.30;;;;;;;1.91;92.09;101106.78;5040640;28;20052;-49
2022/11/19 08:14:12;;;;;;;41.97;28.08;;;;;;;1.93;92.16;101104.97;5046626;28;20049;-49
2022/11/19 08:19:21;;;;;;;38.15;27.63;;;;;;;1.92;91.53;101108.50;5049184;28;20043;-50
2022/11/19 08:21:47;;;;;;;42.10;28.80;;;;;;;1.96;91.83;101113.56;5048004;28;20041;-49
2022/11/19 08:24:15;;;;;;;39.47;29.25;;;;;;;1.95;92.01;101119.72;5044255;28;20051;-49
2022/11/19 08:26:41;;;;;;;44.15;30.63;;;;;;;1.93;91.14;101107.56;5050150;28;20057;-49
2022/11/19 08:29:07;;;;;;;42.00;29.52;;;;;;;1.94;91.58;101114.53;5039856;28;20033;-50
2022/11/19 08:31:32;;;;;;;42.28;28.73;;;;;;;1.93;90.91;101121.56;5046760;28;20048;-49
2022/11/19 08:34:00;;;;;;;42.17;29.67;;;;;;;1.93;91.38;101118.94;5048720;28;20032;-50
2022/11/19 08:36:25;;;;;;;39.78;29.20;;;;;;;1.97;91.63;101123.13;5050226;28;20044;-50
2022/11/19 08:38:50;;;;;;;39.47;28.23;;;;;;;1.99;90.92;101128.31;5043947;28;20016;-49
2022/11/19 08:44:02;;;;;;;37.40;27.48;;;;;;;2.00;91.98;101124.81;5037203;28;20059;-49
2022/11/19 08:46:28;;;;;;;40.30;29.23;;;;;;;2.02;92.56;101123.81;5043514;28;20445;-49
2022/11/19 08:48:53;;;;;;;38.53;28.33;;;;;;;2.02;91.70;101128.22;5040762;28;20025;-50
2022/11/19 08:51:18;;;;;;;37.65;28.67;;;;;;;2.04;91.89;101129.84;5033237;28;20044;-50
2022/11/19 08:53:44;;;;;;;37.95;28.55;;;;;;;2.06;92.13;101134.19;5040944;28;20086;-50
2022/11/19 08:56:09;;;;;;;40.40;29.67;;;;;;;2.06;91.76;101142.06;5052576;28;20471;-51
2022/11/19 08:58:35;;;;;;;41.67;29.30;;;;;;;2.06;91.57;101142.06;5051512;28;20040;-51
2022/11/19 09:01:10;;;;;;;40.33;29.80;;;;;;;2.07;91.57;101142.00;5052107;28;20486;-50
2022/11/19 09:03:36;;;;;;;36.55;27.10;;;;;;;2.08;91.52;101141.06;5052336;28;20025;-52
2022/11/19 09:06:01;;;;;;;36.53;27.48;;;;;;;2.10;90.93;101149.75;5034070;28;20021;-51
2022/11/19 09:08:27;;;;;;;37.67;28.20;;;;;;;2.08;90.15;101145.47;5036202;28;20523;-49
2022/11/19 09:10:53;;;;;;;40.63;28.08;;;;;;;2.07;90.48;101147.25;5038209;28;20032;-50
2022/11/19 09:13:18;;;;;;;39.20;28.55;;;;;;;2.07;90.77;101147.25;5043248;28;20399;-50
2022/11/19 09:15:46;;;;;;;40.70;29.63;;;;;;;2.09;90.36;101152.44;5037052;28;20069;-49
2022/11/19 09:18:13;;;;;;;40.20;29.93;;;;;;;2.08;89.93;101146.31;5052243;28;20029;-49
2022/11/19 09:20:38;;;;;;;38.55;28.08;;;;;;;2.09;90.50;101155.03;5046791;28;20030;-51
2022/11/19 09:23:04;;;;;;;37.78;27.23;;;;;;;2.07;90.42;101157.72;5032940;28;20420;-49
2022/11/19 09:25:29;;;;;;;41.83;29.80;;;;;;;2.08;90.35;101159.41;5034707;28;20024;-49
2022/11/19 09:27:54;;;;;;;40.55;28.88;;;;;;;2.08;90.07;101169.03;5044837;28;20025;-49
2022/11/19 09:30:19;;;;;;;39.00;28.83;;;;;;;2.06;89.83;101165.63;5049970;28;20051;-49
2022/11/19 09:32:45;;;;;;;41.72;28.15;;;;;;;2.07;90.01;101167.34;5048866;28;20033;-49
2022/11/19 09:35:10;;;;;;;39.65;28.30;;;;;;;2.04;89.72;101169.16;5051572;28;20079;-50
2022/11/19 09:37:35;;;;;;;39.50;28.40;;;;;;;2.03;89.72;101177.06;5051424;28;20057;-52
2022/11/19 09:40:01;;;;;;;38.92;27.20;;;;;;;2.02;90.30;101175.38;5050915;28;20075;-49
2022/11/19 09:42:26;;;;;;;36.58;27.02;;;;;;;2.03;90.01;101184.91;5048842;28;20033;-49
2022/11/19 09:44:58;;;;;;;37.63;26.57;;;;;;;2.06;90.00;101186.59;5040450;28;20036;-51
2022/11/19 09:47:51;;;;;;;37.92;26.90;;;;;;;2.04;89.36;101192.72;5042265;28;20397;-50
2022/11/19 09:50:34;;;;;;;37.58;25.50;;;;;;;2.00;88.93;101190.28;5035426;28;20479;-49
2022/11/19 09:53:16;;;;;;;37.90;26.92;;;;;;;1.99;89.75;101204.28;5034436;28;20030;-50
2022/11/19 09:55:44;;;;;;;35.83;25.33;;;;;;;1.95;88.90;101206.16;5038763;28;20024;-52
2022/11/19 09:58:15;;;;;;;37.50;26.98;;;;;;;1.93;89.64;101207.13;5035804;28;20094;-51
2022/11/19 10:00:42;;;;;;;41.67;27.50;;;;;;;1.93;89.80;101204.50;5036064;28;20037;-50
2022/11/19 10:03:15;;;;;;;35.65;25.95;;;;;;;1.95;89.05;101205.28;5046882;28;20487;-50
2022/11/19 10:06:14;;;;;;;39.75;27.67;;;;;;;1.96;89.12;101205.25;5039524;28;20079;-53
2022/11/19 10:09:04;;;;;;;37.72;26.15;;;;;;;1.93;89.27;101201.88;5040159;28;20045;-50
2022/11/19 10:11:49;;;;;;;41.97;26.70;;;;;;;1.91;89.81;101206.31;5043696;28;20036;-49
2022/11/19 10:14:48;;;;;;;39.78;26.85;;;;;;;1.89;89.89;101206.38;5049842;28;20410;-48
2022/11/19 10:17:27;;;;;;;37.33;27.52;;;;;;;1.86;89.68;101209.09;5033466;28;20049;-50
2022/11/19 10:19:53;;;;;;;38.35;26.08;;;;;;;1.87;89.54;101209.97;5031020;28;20124;-51
2022/11/19 10:22:31;;;;;;;38.00;26.02;;;;;;;1.89;89.29;101214.22;5045548;28;20726;-49
2022/11/19 10:25:26;;;;;;;38.92;26.45;;;;;;;1.86;89.04;101214.34;5045623;28;20033;-49
2022/11/19 10:27:56;;;;;;;37.92;26.58;;;;;;;1.83;88.99;101211.81;5049183;28;20422;-52
2022/11/19 10:30:25;;;;;;;37.08;26.13;;;;;;;1.83;89.15;101228.41;5054425;28;20028;-50
2022/11/19 10:32:59;;;;;;;36.33;25.38;;;;;;;1.79;88.05;101215.47;5053698;28;20125;-53
2022/11/19 10:35:41;;;;;;;36.05;25.58;;;;;;;1.83;88.52;101227.53;5043759;28;20083;-49
2022/11/19 10:38:23;;;;;;;34.72;25.23;;;;;;;1.84;88.44;101230.09;5041972;28;20479;-51
2022/11/19 10:40:54;;;;;;;35.50;26.02;;;;;;;1.83;89.03;101227.53;5047396;28;20350;-50
2022/11/19 10:43:45;;;;;;;35.70;25.25;;;;;;;1.83;87.98;101224.91;5044256;28;20111;-49
2022/11/19 10:46:18;;;;;;;34.97;24.83;;;;;;;1.87;88.86;101225.69;5047808;28;20044;-50
2022/11/19 10:48:49;;;;;;;35.63;24.88;;;;;;;1.86;87.76;101222.19;5052869;28;20020;-51
2022/11/19 10:51:29;;;;;;;35.35;24.27;;;;;;;1.85;88.22;101218.72;5054531;28;20025;-50
2022/11/19 10:53:56;;;;;;;34.17;23.67;;;;;;;1.84;86.98;101234.50;5053388;28;20024;-49
2022/11/19 10:56:28;;;;;;;34.05;24.42;;;;;;;1.83;87.29;101219.66;5043847;28;20118;-52
2022/11/19 10:58:56;;;;;;;35.80;24.83;;;;;;;1.85;88.07;101225.75;5053754;28;20067;-50
2022/11/19 11:01:31;;;;;;;39.03;25.70;;;;;;;1.85;87.75;101226.59;5064127;28;20024;-50
2022/11/19 11:04:06;;;;;;;37.35;24.58;;;;;;;1.86;87.79;101232.66;5057283;28;20288;-49
2022/11/19 11:06:52;;;;;;;35.97;24.50;;;;;;;1.87;87.75;101226.53;5054297;28;20063;-50
2022/11/19 11:09:38;;;;;;;33.92;23.33;;;;;;;1.87;87.35;101228.31;5050551;28;20531;-49
2022/11/19 11:15:13;;;;;;;36.38;22.77;;;;;;;1.85;87.69;101223.97;5040521;28;20095;-52
2022/11/19 11:17:41;;;;;;;34.47;22.88;;;;;;;1.86;87.51;101224.81;5050441;28;20029;-50
2022/11/19 11:20:22;;;;;;;33.80;23.48;;;;;;;1.91;87.80;101233.38;5041042;28;20559;-49
2022/11/19 11:23:00;;;;;;;34.35;23.50;;;;;;;1.89;87.33;101223.88;5046433;28;20463;-51
2022/11/19 11:25:27;;;;;;;34.97;23.67;;;;;;;1.88;87.25;101219.53;5052660;28;20371;-50
2022/11/19 11:28:13;;;;;;;35.05;24.75;;;;;;;1.95;87.63;101221.00;5038150;28;20056;-49
2022/11/19 11:30:57;;;;;;;32.00;23.45;;;;;;;1.98;87.55;101216.53;5050186;28;20045;-50
2022/11/19 11:33:26;;;;;;;30.48;22.23;;;;;;;1.94;86.05;101216.69;5046404;28;20048;-49
2022/11/19 11:35:53;;;;;;;;;;;;;;;2.03;87.36;101211.13;5051385;28;20491;-49
2022/11/19 11:38:22;;;;;;;28.83;21.55;;;;;;;1.92;86.66;101219.38;5036239;28;19974;-50
2022/11/19 11:41:06;;;;;;;26.33;19.40;;;;;;;1.91;85.78;101214.19;5039324;28;20033;-51
2022/11/19 11:43:33;;;;;;;30.23;21.88;;;;;;;1.86;86.27;101203.84;5035003;28;20030;-50
2022/11/19 11:46:03;;;;;;;27.92;20.73;;;;;;;1.90;86.11;101201.97;5035123;28;20025;-51
2022/11/19 11:48:45;;;;;;;;;;;;;;;2.01;87.67;101205.94;5038224;28;20032;-52